AirNav   Everest Fuels
 
 816 users online  

OG21 Dry Creek Airpark
Prineville, Oregon, USA

GOING TO PRINEVILLE?


FAA INFORMATION EFFECTIVE 21 MAY 2020

Location

FAA Identifier: OG21
Lat/Long: 44-11-42.5000N 120-49-23.1000W
44-11.708333N 120-49.385000W
44.1951389,-120.8230833
(estimated)
Elevation: 3625 ft. / 1105 m (estimated)
Variation: 18E (1995)
From city: 8 miles S of PRINEVILLE, OR
Time zone: UTC -7 (UTC -8 during Standard Time)
Zip code: 97754

Airport Operations

Airport use: Private use. Permission required prior to landing
Activation date: 06/2000
Control tower: no
ARTCC: SEATTLE CENTER
FSS: MC MINNVILLE FLIGHT SERVICE STATION
Attendance: UNATNDD
Wind indicator: yes
Segmented circle: no
Lights: ACTVT HIRL RY 07/25 - 123.3.

Airport Communications

WX AWOS-3PT at S39 (7 nm NW): 118.325 (541-447-4060)
WX ASOS at RDM (14 nm W): 119.025 (541-504-8743)
WX AWOS-3 at BDN (17 nm W): 134.425 (541-382-1477)

Nearby radio navigation aids

VOR radial/distance  VOR name  Freq  Var
DSDr082/20.9DESCHUTES VORTAC117.6018E

Airport Services

Runway Information

Runway 7/25

Dimensions: 3000 x 35 ft. / 914 x 11 m
Surface: asphalt, in good condition
Runway edge lights: high intensity
RUNWAY 7  RUNWAY 25
Traffic pattern: leftleft
Markings: NSTDNSTD

Airport Ownership and Management from official FAA records

Ownership: Privately-owned
Owner: DRY CREEK AIRPARK, LLC
2525 SE PILOT DRIVE
PRINEVILLE, OR 97754
Phone 541-447-2777
Manager: BOB BRONSON
2525 SE PILOT DRIVE
PRINEVILLE, OR 97754
Phone 541-447-2777

Additional Remarks

FOR CD CTC SEATTLE ARTCC AT 253-351-3694.

Instrument Procedures

There are no published instrument procedures at OG21.

Some nearby airports with instrument procedures:

S39 - Prineville Airport (7 nm NW)
KRDM - Roberts Field Airport (14 nm W)
KBDN - Bend Municipal Airport (17 nm W)
S33 - Madras Municipal Airport (32 nm NW)
S21 - Sunriver Airport (33 nm SW)
 
Loc | Ops | Rwys | IFR | FBO | Links
Com | Nav | Svcs | Stats | Notes
Area around OG21 (Dry Creek Airpark)
 
Road maps at: MapQuest Bing Google
 
Aerial photo
WARNING: Photo may not be current or correct
Aerial photo of OG21 (Dry Creek Airpark)
Photo taken 01-Jun-2014
looking northwest.

Do you have a better or more recent aerial photo of Dry Creek Airpark that you would like to share? If so, please send us your photo.

 
Sectional chart

 
Airport distance calculator
Flying to Dry Creek Airpark? Find the distance to fly.

From to OG21

Sunrise and sunset
Times for 06-Jun-2020
 Local
(UTC-7)
 Zulu
(UTC)
Morning civil twilight04:4511:45
Sunrise05:2112:21
Sunset20:4303:43
Evening civil twilight21:1904:19

Current date and time
Zulu (UTC)  07-Jun-2020 02:34:53
Local (UTC-7)  06-Jun-2020 19:34:53
 
METAR
KS39 
7nm NW 
070215Z AUTO 28013G19KT 10SM FEW080 09/00 A2983 RMK AO2
KRDM 
14nm W 
070156Z 29021G26KT 10SM BKN075 OVC085 11/M01 A2983 RMK AO2 PK WND 29026/0155 SLP097 T01061006
KBDN 
17nm W 
070215Z AUTO 34005KT 10SM CLR 09/01 A2985 RMK AO2
TAF
KRDM 
14nm W 
062136Z 0622/0718 29014KT P6SM VCSH SCT050 BKN070 FM070000 29017G25KT P6SM VCSH BKN050 OVC060 FM070400 30017G24KT P6SM OVC050 FM070900 23015KT P6SM OVC050 FM071500 28014KT P6SM OVC040
KBDN 
17nm W 
070038Z 0701/0724 24008G18KT P6SM VCSH BKN040 OVC050 FM070600 23011KT P6SM OVC050 FM071500 24010KT P6SM OVC040 FM071800 29014G24KT P6SM OVC050
NOTAMs
Click for the latest NOTAMs
NOTAMs are issued by the DoD/FAA and will open in a separate window not controlled by AirNav.

 

 
 

Would you like to see your business listed on this page?

 If your business provides an interesting product or service to pilots, flight crews, aircraft, or users of the Dry Creek Airpark, you should consider listing it here.  To start the listing process, click on the button below
 
Add a business
 

Other Pages about Dry Creek Airpark

Update a link
 
Copyright © AirNav, LLC. All rights reserved. Privacy Policy  Contact